Time;durP1;ratioP1;P1;durP2;ratioP2;P2;SDS_P1;SDS_P2;PMS_P1;PMS_P2;Temp;Humidity;BMP_temperature;BMP_pressure;BME280_temperature;BME280_humidity;BME280_pressure;Samples;Min_cycle;Max_cycle;Signal;HPM_P1;HPM_P2
2022/01/05 00:00:44;;;;;;;3.63;3.00;;;4.20;99.90;;;;;;5127609;28;20434;-50
2022/01/05 00:03:14;;;;;;;8.10;3.80;;;4.10;99.90;;;;;;5144911;28;20196;-49
2022/01/05 00:05:45;;;;;;;2.73;2.57;;;4.10;99.90;;;;;;5125954;28;20456;-49
2022/01/05 00:08:18;;;;;;;3.80;2.77;;;4.10;99.90;;;;;;5144600;28;20686;-48
2022/01/05 00:10:49;;;;;;;3.67;2.90;;;4.00;99.90;;;;;;5127021;28;20653;-48
2022/01/05 00:13:20;;;;;;;4.93;2.87;;;4.00;99.90;;;;;;5160276;23;20606;-51
2022/01/05 00:15:50;;;;;;;4.70;2.90;;;4.10;99.90;;;;;;5161526;28;20632;-53
2022/01/05 00:18:21;;;;;;;3.13;2.60;;;4.00;99.90;;;;;;5167061;28;20517;-50
2022/01/05 00:20:51;;;;;;;8.70;3.30;;;4.10;99.90;;;;;;5168668;28;20178;-54
2022/01/05 00:23:22;;;;;;;4.90;3.37;;;4.10;99.90;;;;;;5155203;28;20205;-50
2022/01/05 00:25:52;;;;;;;8.80;2.97;;;4.10;99.90;;;;;;5158052;28;20169;-52
2022/01/05 00:28:23;;;;;;;4.83;2.87;;;4.10;99.90;;;;;;5147405;28;20269;-51
2022/01/05 00:30:53;;;;;;;3.13;2.83;;;4.00;99.90;;;;;;5165529;28;20187;-53
2022/01/05 00:33:24;;;;;;;3.53;2.03;;;4.00;99.90;;;;;;5156618;28;20245;-51
2022/01/05 00:35:55;;;;;;;3.57;2.40;;;4.00;99.90;;;;;;5155913;28;20173;-51
2022/01/05 00:38:25;;;;;;;4.13;2.07;;;4.10;99.90;;;;;;5163546;28;20641;-50
2022/01/05 00:40:55;;;;;;;5.10;2.50;;;4.10;99.90;;;;;;5164227;28;20545;-51
2022/01/05 00:43:27;;;;;;;10.40;2.60;;;4.00;99.90;;;;;;5163415;28;20212;-51
2022/01/05 00:45:57;;;;;;;2.27;2.10;;;4.00;99.90;;;;;;5155792;28;20192;-51
2022/01/05 00:48:30;;;;;;;10.87;2.27;;;4.00;99.90;;;;;;5164207;28;20410;-52
2022/01/05 00:51:06;;;;;;;6.87;2.30;;;4.00;99.90;;;;;;5162656;28;20201;-51
2022/01/05 00:53:37;;;;;;;7.93;2.10;;;4.00;99.90;;;;;;5163290;28;20447;-51
2022/01/05 00:56:11;;;;;;;8.23;1.87;;;4.10;99.90;;;;;;5161474;28;20527;-51
2022/01/05 00:58:41;;;;;;;2.60;2.10;;;4.00;99.90;;;;;;5162659;28;20306;-51
2022/01/05 01:01:12;;;;;;;8.17;2.40;;;4.00;99.90;;;;;;5158709;28;20571;-50
2022/01/05 01:03:42;;;;;;;2.50;2.07;;;4.00;99.90;;;;;;5163232;28;20249;-52
2022/01/05 01:06:13;;;;;;;1.97;1.60;;;4.00;99.90;;;;;;5164041;28;20209;-50
2022/01/05 01:08:43;;;;;;;10.20;2.07;;;4.00;99.90;;;;;;5154331;28;20255;-51
2022/01/05 01:11:14;;;;;;;2.30;1.70;;;4.00;99.90;;;;;;5162301;28;20219;-51
2022/01/05 01:13:45;;;;;;;2.07;1.97;;;4.00;99.90;;;;;;5156605;28;20206;-53
2022/01/05 01:16:17;;;;;;;2.30;1.70;;;4.00;99.90;;;;;;5165174;28;20640;-52
2022/01/05 01:18:48;;;;;;;4.60;1.87;;;4.00;99.90;;;;;;5165392;28;20190;-51
2022/01/05 01:21:18;;;;;;;2.87;1.63;;;4.10;99.90;;;;;;5157836;28;20439;-50
2022/01/05 01:23:58;;;;;;;1.97;1.70;;;4.20;99.90;;;;;;5162236;28;20281;-51
2022/01/05 01:26:30;;;;;;;6.40;1.90;;;4.20;99.90;;;;;;5155434;28;20204;-52
2022/01/05 01:29:01;;;;;;;1.00;1.00;;;4.20;99.90;;;;;;5167211;28;20511;-50
2022/01/05 01:31:31;;;;;;;9.40;1.50;;;4.30;99.90;;;;;;5168867;28;20429;-51
2022/01/05 01:34:02;;;;;;;2.93;1.97;;;4.30;99.90;;;;;;5169366;28;20754;-51
2022/01/05 01:36:33;;;;;;;8.77;1.40;;;4.40;99.90;;;;;;5171213;28;20178;-51
2022/01/05 01:39:04;;;;;;;5.03;1.63;;;4.50;99.90;;;;;;5168651;28;20181;-51
2022/01/05 01:41:35;;;;;;;4.57;2.17;;;4.50;99.90;;;;;;5151340;28;20229;-51
2022/01/05 01:44:06;;;;;;;1.77;1.63;;;4.50;99.90;;;;;;5169291;28;20497;-52
2022/01/05 01:46:37;;;;;;;3.03;1.50;;;4.50;99.90;;;;;;5170050;28;20202;-51
2022/01/05 01:49:08;;;;;;;5.63;1.67;;;4.50;99.90;;;;;;5162990;28;20776;-50
2022/01/05 01:51:38;;;;;;;4.13;1.70;;;4.50;99.90;;;;;;5168373;28;20233;-51
2022/01/05 01:54:09;;;;;;;8.40;1.60;;;4.40;99.90;;;;;;5154800;28;20456;-50
2022/01/05 01:56:41;;;;;;;4.20;1.73;;;4.40;99.90;;;;;;5171824;28;20280;-50
2022/01/05 01:59:12;;;;;;;1.83;1.00;;;4.40;99.90;;;;;;5171777;28;20190;-51
2022/01/05 02:01:42;;;;;;;4.90;1.70;;;4.40;99.90;;;;;;5169991;28;20946;-51
2022/01/05 02:04:13;;;;;;;2.00;1.23;;;4.50;99.90;;;;;;5167145;28;20512;-52
2022/01/05 02:06:44;;;;;;;8.40;1.77;;;4.50;99.90;;;;;;5146384;28;20207;-50
2022/01/05 02:09:15;;;;;;;6.10;1.80;;;4.60;99.90;;;;;;5164430;28;20291;-52
2022/01/05 02:11:45;;;;;;;1.50;1.27;;;4.60;99.90;;;;;;5170113;28;20202;-50
2022/01/05 02:14:16;;;;;;;3.10;1.83;;;4.60;99.90;;;;;;5152399;28;20226;-50
2022/01/05 02:16:47;;;;;;;3.40;1.40;;;4.60;99.90;;;;;;5168650;28;20747;-51
2022/01/05 02:19:18;;;;;;;4.30;1.20;;;4.60;99.90;;;;;;5153199;28;20284;-50
2022/01/05 02:21:48;;;;;;;5.13;1.73;;;4.60;99.90;;;;;;5152680;28;20535;-51
2022/01/05 02:24:19;;;;;;;4.83;1.57;;;4.60;99.90;;;;;;5169462;28;20218;-50
2022/01/05 02:26:49;;;;;;;2.73;1.50;;;4.60;99.90;;;;;;5168895;28;20201;-50
2022/01/05 02:29:21;;;;;;;3.80;1.80;;;4.60;99.90;;;;;;5170851;28;20177;-50
2022/01/05 02:31:52;;;;;;;2.00;1.30;;;4.70;99.90;;;;;;5170046;28;20170;-51
2022/01/05 02:34:22;;;;;;;4.67;1.20;;;4.60;99.90;;;;;;5169750;28;20958;-52
2022/01/05 02:36:53;;;;;;;4.10;1.37;;;4.60;99.90;;;;;;5153559;28;20210;-50
2022/01/05 02:39:23;;;;;;;5.13;2.40;;;4.60;99.90;;;;;;5168774;28;20184;-52
2022/01/05 02:41:54;;;;;;;8.80;1.83;;;4.60;99.90;;;;;;5163257;28;20209;-52
2022/01/05 02:44:24;;;;;;;9.47;1.30;;;4.60;99.90;;;;;;5148731;28;20736;-50
2022/01/05 02:46:55;;;;;;;2.40;1.23;;;4.60;99.90;;;;;;5141404;28;20266;-52
2022/01/05 02:49:25;;;;;;;4.30;1.30;;;4.60;99.90;;;;;;5149119;28;20178;-52
2022/01/05 02:51:56;;;;;;;4.90;1.40;;;4.60;99.90;;;;;;5167417;28;20305;-52
2022/01/05 02:54:27;;;;;;;3.80;1.33;;;4.60;99.90;;;;;;5149572;28;20207;-52
2022/01/05 02:56:57;;;;;;;3.43;1.53;;;4.60;99.90;;;;;;5161431;28;20592;-50
2022/01/05 02:59:28;;;;;;;12.30;1.50;;;4.60;99.90;;;;;;5149489;28;20636;-52
2022/01/05 03:01:59;;;;;;;6.73;1.37;;;4.60;99.90;;;;;;5167331;28;20188;-51
2022/01/05 03:04:29;;;;;;;6.50;1.90;;;4.60;99.90;;;;;;5169524;28;20869;-52
2022/01/05 03:07:00;;;;;;;5.20;0.90;;;4.50;99.90;;;;;;5169077;28;20236;-50
2022/01/05 03:09:31;;;;;;;2.83;1.37;;;4.50;99.90;;;;;;5160109;28;20557;-50
2022/01/05 03:12:02;;;;;;;1.07;0.97;;;4.50;99.90;;;;;;5165519;28;20192;-50
2022/01/05 03:14:32;;;;;;;3.70;1.30;;;4.40;99.90;;;;;;5161449;28;20616;-52
2022/01/05 03:17:03;;;;;;;3.90;1.10;;;4.50;99.90;;;;;;5167592;28;20213;-53
2022/01/05 03:19:34;;;;;;;1.70;0.80;;;4.50;99.90;;;;;;5152480;28;20180;-51
2022/01/05 03:22:04;;;;;;;3.37;1.07;;;4.50;99.90;;;;;;5168672;28;20448;-50
2022/01/05 03:24:35;;;;;;;3.80;1.53;;;4.50;99.90;;;;;;5168828;28;20218;-50
2022/01/05 03:27:06;;;;;;;15.60;1.70;;;4.50;99.90;;;;;;5159424;28;20227;-51
2022/01/05 03:29:36;;;;;;;3.23;1.50;;;4.50;99.90;;;;;;5166558;28;20189;-50
2022/01/05 03:32:07;;;;;;;5.70;1.77;;;4.40;99.90;;;;;;5165450;28;20193;-52
2022/01/05 03:34:38;;;;;;;4.60;1.40;;;4.40;99.90;;;;;;5149842;28;20204;-51
2022/01/05 03:37:09;;;;;;;8.83;1.50;;;4.50;99.90;;;;;;5167526;28;20461;-53
2022/01/05 03:39:39;;;;;;;3.30;1.73;;;4.40;99.90;;;;;;5150132;28;20484;-53
2022/01/05 03:42:10;;;;;;;8.83;1.37;;;4.40;99.90;;;;;;5168643;28;20189;-51
2022/01/05 03:44:40;;;;;;;6.73;1.60;;;4.40;99.90;;;;;;5167221;28;20272;-51
2022/01/05 03:47:11;;;;;;;4.40;1.70;;;4.40;99.90;;;;;;5160394;28;20207;-51
2022/01/05 03:49:41;;;;;;;5.03;1.70;;;4.40;99.90;;;;;;5169333;28;20221;-55
2022/01/05 03:52:12;;;;;;;9.47;1.60;;;4.40;99.90;;;;;;5151760;28;20185;-51
2022/01/05 03:54:42;;;;;;;6.80;1.70;;;4.30;99.90;;;;;;5161805;28;20181;-52
2022/01/05 03:57:13;;;;;;;6.57;1.40;;;4.30;99.90;;;;;;5161107;28;20186;-49
2022/01/05 03:59:46;;;;;;;4.70;1.40;;;4.30;99.90;;;;;;5157842;28;20222;-51
2022/01/05 04:02:17;;;;;;;7.27;1.93;;;4.40;99.90;;;;;;5162225;28;20205;-51
2022/01/05 04:04:47;;;;;;;7.33;1.83;;;4.30;99.90;;;;;;5165499;28;21192;-51
2022/01/05 04:07:18;;;;;;;2.10;1.27;;;4.40;99.90;;;;;;5166025;28;20242;-52
2022/01/05 04:09:48;;;;;;;10.30;1.77;;;4.40;99.90;;;;;;5164292;28;20197;-53
2022/01/05 04:12:19;;;;;;;12.40;1.30;;;4.50;99.90;;;;;;5156688;28;20175;-50
2022/01/05 04:14:49;;;;;;;4.63;1.83;;;4.40;99.90;;;;;;5164980;28;20179;-52
2022/01/05 04:17:21;;;;;;;5.80;1.57;;;4.40;99.90;;;;;;5165653;28;20178;-52
2022/01/05 04:19:52;;;;;;;2.30;1.33;;;4.50;99.90;;;;;;5160945;28;20188;-50
2022/01/05 04:22:22;;;;;;;1.93;1.20;;;4.50;99.90;;;;;;5142053;28;20521;-50
2022/01/05 04:24:53;;;;;;;3.73;1.37;;;4.50;99.90;;;;;;5165604;28;20441;-50
2022/01/05 04:27:23;;;;;;;3.17;1.20;;;4.50;99.90;;;;;;5166631;28;20289;-50
2022/01/05 04:29:54;;;;;;;5.87;1.03;;;4.50;99.90;;;;;;5158341;28;20276;-50
2022/01/05 04:32:25;;;;;;;5.03;1.10;;;4.50;99.90;;;;;;5157738;28;20186;-52
2022/01/05 04:34:55;;;;;;;3.80;1.53;;;4.50;99.90;;;;;;5148038;28;20183;-50
2022/01/05 04:37:26;;;;;;;14.70;1.87;;;4.50;99.90;;;;;;5162594;28;20187;-50
2022/01/05 04:39:56;;;;;;;5.20;1.70;;;4.60;99.90;;;;;;5163546;28;20186;-51
2022/01/05 04:42:27;;;;;;;3.53;1.67;;;4.60;99.90;;;;;;5163413;28;20277;-51
2022/01/05 04:44:58;;;;;;;6.53;2.00;;;4.60;99.90;;;;;;5146011;28;20183;-50
2022/01/05 04:47:28;;;;;;;2.13;1.20;;;4.60;99.90;;;;;;5162799;28;20202;-52
2022/01/05 04:49:59;;;;;;;6.00;1.13;;;4.50;99.90;;;;;;5164347;28;20592;-52
2022/01/05 04:52:29;;;;;;;4.80;1.47;;;4.50;99.90;;;;;;5157855;28;20218;-51
2022/01/05 04:55:00;;;;;;;6.33;1.23;;;4.50;99.90;;;;;;5163325;28;20549;-51
2022/01/05 04:57:30;;;;;;;1.77;1.60;;;4.50;99.90;;;;;;5163294;28;20184;-50
2022/01/05 05:00:02;;;;;;;9.93;1.40;;;4.50;99.90;;;;;;5163629;28;20639;-51
2022/01/05 05:02:32;;;;;;;4.00;1.50;;;4.40;99.90;;;;;;5164228;28;20233;-51
2022/01/05 05:05:03;;;;;;;5.83;1.20;;;4.40;99.90;;;;;;5164221;28;20909;-51
2022/01/05 05:07:33;;;;;;;4.20;1.43;;;4.40;99.90;;;;;;5165567;28;20214;-52
2022/01/05 05:10:05;;;;;;;9.43;1.63;;;4.30;99.90;;;;;;5158476;28;20542;-51
2022/01/05 05:12:35;;;;;;;3.23;1.13;;;4.40;99.90;;;;;;5146869;28;20747;-50
2022/01/05 05:15:06;;;;;;;12.03;1.97;;;4.30;99.90;;;;;;5165088;28;20520;-50
2022/01/05 05:17:36;;;;;;;5.43;1.80;;;4.30;99.90;;;;;;5147763;28;20191;-54
2022/01/05 05:20:08;;;;;;;3.73;1.17;;;4.30;99.90;;;;;;5160621;28;20615;-51
2022/01/05 05:22:38;;;;;;;5.40;1.07;;;4.20;99.90;;;;;;5165661;28;20228;-51
2022/01/05 05:25:09;;;;;;;2.03;1.33;;;4.10;99.90;;;;;;5149321;28;20452;-50
2022/01/05 05:27:40;;;;;;;7.00;1.30;;;4.10;99.90;;;;;;5158527;28;20280;-54
2022/01/05 05:30:10;;;;;;;1.83;0.97;;;4.00;99.90;;;;;;5158120;28;20443;-53
2022/01/05 05:32:41;;;;;;;8.73;1.17;;;4.00;99.90;;;;;;5167045;28;21773;-52
2022/01/05 05:35:12;;;;;;;1.53;1.20;;;4.00;99.90;;;;;;5166187;28;20410;-52
2022/01/05 05:37:42;;;;;;;7.17;1.53;;;3.90;99.90;;;;;;5163509;28;20583;-49
2022/01/05 05:40:13;;;;;;;4.37;1.30;;;3.90;99.90;;;;;;5163640;28;20183;-51
2022/01/05 05:42:43;;;;;;;2.90;1.13;;;3.90;99.90;;;;;;5163722;28;20247;-51
2022/01/05 05:45:14;;;;;;;9.90;1.90;;;3.90;99.90;;;;;;5153586;28;20193;-51
2022/01/05 05:47:45;;;;;;;1.87;1.30;;;3.80;99.90;;;;;;5163502;28;20678;-52
2022/01/05 05:50:16;;;;;;;2.30;1.60;;;3.80;99.90;;;;;;5162104;28;20446;-51
2022/01/05 05:52:46;;;;;;;6.53;2.00;;;3.80;99.90;;;;;;5161190;28;20262;-51
2022/01/05 05:55:17;;;;;;;1.70;1.60;;;3.80;99.90;;;;;;5154350;28;20187;-51
2022/01/05 05:57:47;;;;;;;11.33;1.40;;;3.70;99.90;;;;;;5154396;28;20213;-51
2022/01/05 06:00:18;;;;;;;5.87;1.57;;;3.70;99.90;;;;;;5147240;28;20647;-53
2022/01/05 06:02:49;;;;;;;4.70;1.73;;;3.70;99.90;;;;;;5164049;28;20213;-51
2022/01/05 06:05:19;;;;;;;7.60;2.33;;;3.60;99.90;;;;;;5158854;28;20188;-51
2022/01/05 06:07:50;;;;;;;4.33;1.83;;;3.60;99.90;;;;;;5160999;28;20244;-51
2022/01/05 06:10:20;;;;;;;12.77;2.10;;;3.60;99.90;;;;;;5157889;28;20189;-51
2022/01/05 06:15:35;;;;;;;3.90;1.83;;;3.60;99.90;;;;;;5175177;28;20733;-48
2022/01/05 06:18:06;;;;;;;4.93;1.90;;;3.50;99.90;;;;;;5168028;28;20427;-48
2022/01/05 06:20:36;;;;;;;18.43;2.17;;;3.60;99.90;;;;;;5183897;28;20276;-47
2022/01/05 06:23:07;;;;;;;14.90;1.70;;;3.60;99.90;;;;;;5164961;28;20264;-48
2022/01/05 06:25:37;;;;;;;4.37;1.30;;;3.70;99.90;;;;;;5148575;28;20538;-49
2022/01/05 06:28:11;;;;;;;3.70;1.67;;;3.70;99.90;;;;;;5165370;28;20210;-48
2022/01/05 06:30:41;;;;;;;6.00;2.10;;;3.70;99.90;;;;;;5163706;28;20186;-49
2022/01/05 06:33:12;;;;;;;10.30;1.80;;;3.80;99.90;;;;;;5159534;28;20429;-48
2022/01/05 06:35:43;;;;;;;13.93;2.23;;;3.80;99.90;;;;;;5161712;28;20181;-49
2022/01/05 06:38:13;;;;;;;17.50;2.77;;;3.80;99.90;;;;;;5141139;28;20189;-49
2022/01/05 06:40:44;;;;;;;1.80;1.43;;;3.70;99.90;;;;;;5158085;28;20173;-49
2022/01/05 06:43:15;;;;;;;8.40;2.17;;;3.70;99.90;;;;;;5134130;28;20208;-48
2022/01/05 06:45:45;;;;;;;6.40;1.60;;;3.80;99.90;;;;;;5161345;28;20625;-48
2022/01/05 06:48:16;;;;;;;3.17;1.50;;;3.70;99.90;;;;;;5145684;28;20244;-48
2022/01/05 06:50:46;;;;;;;15.47;1.53;;;3.60;99.90;;;;;;5160379;28;20178;-49
2022/01/05 06:53:17;;;;;;;5.70;2.13;;;3.60;99.90;;;;;;5160085;28;20197;-48
2022/01/05 06:55:47;;;;;;;9.07;2.00;;;3.60;99.90;;;;;;5143170;28;20649;-47
2022/01/05 06:58:18;;;;;;;5.23;2.30;;;3.70;99.90;;;;;;5142754;28;20986;-47
2022/01/05 07:00:48;;;;;;;3.60;1.47;;;3.70;99.90;;;;;;5145177;28;20177;-48
2022/01/05 07:03:19;;;;;;;9.60;2.00;;;3.70;99.90;;;;;;5160570;28;20740;-49
2022/01/05 07:05:50;;;;;;;4.60;1.60;;;3.60;99.90;;;;;;5160657;28;20516;-49
2022/01/05 07:08:20;;;;;;;6.20;1.47;;;3.60;99.90;;;;;;5162043;28;20299;-48
2022/01/05 07:10:51;;;;;;;10.40;1.53;;;3.50;99.90;;;;;;5146305;28;20192;-48
2022/01/05 07:13:22;;;;;;;5.47;1.70;;;3.50;99.90;;;;;;5162444;28;20549;-50
2022/01/05 07:15:53;;;;;;;4.10;1.70;;;3.30;99.90;;;;;;5163335;28;20526;-50
2022/01/05 07:18:23;;;;;;;8.87;1.87;;;3.60;99.90;;;;;;5159723;28;20492;-48
2022/01/05 07:20:54;;;;;;;7.70;2.90;;;3.60;99.90;;;;;;5158664;28;20208;-51
2022/01/05 07:23:24;;;;;;;5.80;1.80;;;3.60;99.90;;;;;;5161488;28;20209;-48
2022/01/05 07:25:55;;;;;;;7.67;1.70;;;3.60;99.90;;;;;;5157574;28;20192;-49
2022/01/05 07:28:26;;;;;;;10.50;1.83;;;3.70;99.90;;;;;;5141934;28;20291;-48
2022/01/05 07:30:57;;;;;;;4.53;1.63;;;3.60;99.90;;;;;;5154140;28;20219;-49
2022/01/05 07:33:28;;;;;;;5.50;1.47;;;3.60;99.90;;;;;;5163012;28;20487;-48
2022/01/05 07:36:00;;;;;;;19.03;2.50;;;3.60;99.90;;;;;;5146588;28;20166;-48
2022/01/05 07:38:30;;;;;;;6.60;1.73;;;3.70;99.90;;;;;;5146854;28;20447;-47
2022/01/05 07:41:01;;;;;;;14.20;5.70;;;3.70;99.90;;;;;;5144503;28;20428;-48
2022/01/05 07:43:31;;;;;;;7.53;2.30;;;3.70;99.90;;;;;;5158586;28;20208;-49
2022/01/05 07:46:02;;;;;;;4.40;2.30;;;3.70;99.90;;;;;;5138491;28;20653;-49
2022/01/05 07:48:33;;;;;;;3.90;1.73;;;3.80;99.90;;;;;;5163434;28;20246;-49
2022/01/05 07:51:03;;;;;;;23.87;2.17;;;3.80;99.90;;;;;;5161180;28;20610;-49
2022/01/05 07:53:34;;;;;;;12.80;2.70;;;3.70;99.90;;;;;;5163434;28;20236;-50
2022/01/05 07:56:05;;;;;;;5.20;1.47;;;3.80;99.90;;;;;;5164359;28;20282;-51
2022/01/05 07:58:36;;;;;;;9.70;2.17;;;3.70;99.90;;;;;;5146170;28;20205;-49
2022/01/05 08:01:07;;;;;;;6.70;2.27;;;3.70;99.90;;;;;;5146294;28;20188;-49
2022/01/05 08:03:37;;;;;;;41.43;3.03;;;3.70;99.90;;;;;;5159826;28;20452;-49
2022/01/05 08:06:08;;;;;;;5.87;2.40;;;3.60;99.90;;;;;;5140961;28;20217;-48
2022/01/05 08:08:39;;;;;;;13.00;2.00;;;3.80;99.90;;;;;;5144944;28;20197;-48
2022/01/05 08:11:10;;;;;;;18.73;2.17;;;3.70;99.90;;;;;;5141835;28;20275;-51
2022/01/05 08:13:41;;;;;;;7.00;2.03;;;3.80;99.90;;;;;;5163081;28;20267;-48
2022/01/05 08:16:12;;;;;;;9.70;2.40;;;3.70;99.90;;;;;;5160597;28;20448;-48
2022/01/05 08:18:42;;;;;;;2.90;1.70;;;3.80;99.90;;;;;;5154846;28;20440;-50
2022/01/05 08:21:13;;;;;;;5.40;1.93;;;3.90;99.90;;;;;;5163149;28;20181;-48
2022/01/05 08:23:43;;;;;;;12.77;1.77;;;3.90;99.90;;;;;;5143068;28;20221;-49
2022/01/05 08:26:14;;;;;;;13.13;1.97;;;3.80;99.90;;;;;;5159264;28;20185;-48
2022/01/05 08:28:45;;;;;;;1.90;1.43;;;3.80;99.90;;;;;;5164582;28;20296;-49
2022/01/05 08:31:15;;;;;;;4.83;1.40;;;3.70;99.90;;;;;;5143472;28;20185;-47
2022/01/05 08:33:46;;;;;;;8.23;2.47;;;3.70;99.90;;;;;;5129875;28;20193;-48
2022/01/05 08:36:16;;;;;;;8.73;3.30;;;3.70;99.90;;;;;;5160850;28;20181;-49
2022/01/05 08:38:47;;;;;;;5.63;1.70;;;3.70;99.90;;;;;;5160674;28;20205;-50
2022/01/05 08:41:17;;;;;;;8.10;2.30;;;3.70;99.90;;;;;;5144912;28;20174;-48
2022/01/05 08:43:48;;;;;;;4.80;2.00;;;3.70;99.90;;;;;;5145640;28;20688;-49
2022/01/05 08:46:19;;;;;;;9.23;1.73;;;3.60;99.90;;;;;;5160149;28;20287;-49
2022/01/05 08:48:49;;;;;;;1.97;1.67;;;3.60;99.90;;;;;;5143672;28;20646;-49
2022/01/05 08:51:20;;;;;;;5.40;1.53;;;3.60;99.90;;;;;;5159934;28;20185;-48
2022/01/05 08:53:50;;;;;;;6.43;1.83;;;3.60;99.90;;;;;;5159561;28;20202;-49
2022/01/05 08:56:23;;;;;;;11.23;2.60;;;3.60;99.90;;;;;;5126416;28;20333;-50
2022/01/05 08:58:54;;;;;;;15.77;2.23;;;3.60;99.90;;;;;;5161164;28;20591;-48
2022/01/05 09:01:25;;;;;;;8.23;3.50;;;3.60;99.90;;;;;;5159134;28;20487;-48
2022/01/05 09:03:56;;;;;;;7.83;1.53;;;3.70;99.90;;;;;;5141691;28;20497;-49
2022/01/05 09:06:26;;;;;;;4.10;2.30;;;3.70;99.90;;;;;;5160824;28;20251;-49
2022/01/05 09:08:57;;;;;;;4.13;3.37;;;3.80;99.90;;;;;;5161414;28;20833;-49
2022/01/05 09:11:27;;;;;;;5.90;2.07;;;3.90;99.90;;;;;;5161019;28;20219;-49
2022/01/05 09:13:58;;;;;;;8.90;2.07;;;4.00;99.90;;;;;;5158036;28;20272;-48
2022/01/05 09:16:29;;;;;;;5.70;2.00;;;4.00;99.90;;;;;;5154610;28;20263;-48
2022/01/05 09:19:00;;;;;;;8.90;2.57;;;4.10;99.90;;;;;;5143391;28;20229;-49
2022/01/05 09:21:31;;;;;;;3.20;1.70;;;4.30;99.90;;;;;;5152152;28;20928;-48
2022/01/05 09:24:01;;;;;;;14.10;2.57;;;4.20;99.90;;;;;;5143206;28;20551;-48
2022/01/05 09:26:32;;;;;;;2.20;1.27;;;4.10;99.90;;;;;;5144024;28;20260;-48
2022/01/05 09:29:02;;;;;;;7.90;2.20;;;4.20;99.90;;;;;;5159371;28;20214;-51
2022/01/05 09:31:33;;;;;;;3.77;1.77;;;4.40;99.90;;;;;;5159164;28;20244;-48
2022/01/05 09:34:05;;;;;;;5.50;2.03;;;4.60;99.90;;;;;;5152648;28;20252;-49
2022/01/05 09:36:41;;;;;;;5.40;2.00;;;4.70;99.90;;;;;;5156029;28;20183;-48
2022/01/05 09:42:05;;;;;;;10.37;2.67;;;4.90;99.90;;;;;;5161936;28;20534;-48
2022/01/05 09:44:41;;;;;;;2.50;1.93;;;5.20;99.90;;;;;;5137626;28;20468;-49
2022/01/05 09:47:29;;;;;;;5.57;2.37;;;5.40;99.90;;;;;;5158588;28;20468;-49
2022/01/05 09:50:03;;;;;;;5.33;2.43;;;5.50;99.90;;;;;;5144137;28;20437;-49
2022/01/05 09:52:35;;;;;;;9.43;2.73;;;5.80;99.90;;;;;;5162772;28;20956;-50
2022/01/05 09:55:07;;;;;;;25.27;2.63;;;5.90;99.90;;;;;;5167526;28;20832;-50
2022/01/05 09:57:39;;;;;;;13.87;2.77;;;5.90;99.90;;;;;;5163353;28;20429;-51
2022/01/05 10:00:13;;;;;;;6.93;2.10;;;5.60;99.90;;;;;;5159576;28;20437;-49
2022/01/05 10:02:45;;;;;;;8.70;2.70;;;5.50;99.90;;;;;;5161991;28;20464;-49
2022/01/05 10:05:16;;;;;;;5.70;1.97;;;5.40;99.90;;;;;;5162829;28;20478;-50
2022/01/05 10:07:47;;;;;;;10.30;2.47;;;5.30;99.90;;;;;;5160818;28;20469;-49
2022/01/05 10:10:18;;;;;;;6.10;1.90;;;5.30;99.90;;;;;;5162998;28;20832;-50
2022/01/05 10:12:48;;;;;;;4.70;1.90;;;5.30;99.90;;;;;;5143498;28;20210;-48
2022/01/05 10:15:19;;;;;;;5.60;2.43;;;5.50;99.90;;;;;;5157157;28;20911;-51
2022/01/05 10:17:50;;;;;;;10.97;2.50;;;5.70;99.90;;;;;;5162284;28;20448;-49
2022/01/05 10:20:21;;;;;;;12.23;2.53;;;5.70;99.90;;;;;;5161204;28;20285;-50
2022/01/05 10:22:54;;;;;;;7.20;2.03;;;5.80;99.90;;;;;;5162881;28;20188;-50
2022/01/05 10:25:24;;;;;;;8.50;2.17;;;5.80;99.90;;;;;;5159824;28;21255;-49
2022/01/05 10:28:03;;;;;;;7.77;2.13;;;5.80;99.90;;;;;;5160495;28;20480;-50
2022/01/05 10:30:41;;;;;;;14.60;3.13;;;5.90;99.90;;;;;;5163522;28;20291;-49
2022/01/05 10:33:12;;;;;;;11.10;3.07;;;6.00;99.90;;;;;;5161946;28;20525;-51
2022/01/05 10:35:55;;;;;;;11.43;2.60;;;6.00;99.90;;;;;;5166681;28;21785;-49
2022/01/05 10:38:29;;;;;;;10.57;2.37;;;6.10;99.90;;;;;;5163118;28;20585;-50
2022/01/05 10:41:15;;;;;;;6.40;2.60;;;5.90;99.90;;;;;;5143936;28;20439;-49
2022/01/05 10:44:09;;;;;;;9.83;2.50;;;5.70;99.90;;;;;;5148341;28;21021;-49
2022/01/05 10:46:48;;;;;;;23.83;3.67;;;5.70;99.90;;;;;;5163300;28;20506;-49
2022/01/05 10:49:24;;;;;;;8.67;2.97;;;5.50;99.90;;;;;;5160177;28;20554;-48
2022/01/05 10:51:56;;;;;;;9.37;2.37;;;5.70;99.90;;;;;;5160489;28;20484;-50
2022/01/05 10:54:32;;;;;;;11.53;2.97;;;5.80;99.90;;;;;;5161599;28;21011;-48
2022/01/05 10:57:08;;;;;;;22.63;3.10;;;5.80;99.90;;;;;;5164163;28;20527;-51
2022/01/05 10:59:47;;;;;;;7.53;2.67;;;5.80;99.90;;;;;;5158676;28;21096;-49
2022/01/05 11:02:28;;;;;;;4.20;1.90;;;5.80;99.90;;;;;;5157338;28;20441;-49
2022/01/05 11:05:01;;;;;;;6.80;2.13;;;5.80;99.90;;;;;;5156868;28;20494;-49
2022/01/05 11:07:34;;;;;;;8.90;1.77;;;5.90;99.90;;;;;;5151872;28;20822;-49
2022/01/05 11:10:10;;;;;;;4.80;2.73;;;6.00;99.90;;;;;;5160716;28;20438;-50
2022/01/05 11:13:04;;;;;;;3.43;2.03;;;5.90;99.90;;;;;;5158850;28;20440;-48
2022/01/05 11:15:35;;;;;;;12.07;2.30;;;6.10;99.90;;;;;;5159621;28;20459;-50
2022/01/05 11:18:14;;;;;;;6.37;2.23;;;6.10;99.90;;;;;;5142881;28;21032;-49
2022/01/05 11:20:57;;;;;;;8.93;3.77;;;6.20;99.90;;;;;;5162588;28;20440;-49
2022/01/05 11:23:31;;;;;;;6.60;2.57;;;6.10;99.90;;;;;;5143080;28;20463;-50
2022/01/05 11:26:02;;;;;;;8.40;2.27;;;6.10;99.90;;;;;;5162882;28;20463;-49
2022/01/05 11:28:32;;;;;;;7.70;2.70;;;6.20;99.90;;;;;;5141169;28;20472;-50
2022/01/05 11:31:04;;;;;;;8.90;2.30;;;6.50;99.90;;;;;;5156951;28;20559;-50
2022/01/05 11:33:35;;;;;;;11.80;2.80;;;6.40;99.90;;;;;;5153880;28;20207;-51
2022/01/05 11:36:06;;;;;;;4.20;2.37;;;6.50;99.90;;;;;;5142211;28;20467;-51
2022/01/05 11:38:36;;;;;;;8.43;2.13;;;6.50;99.90;;;;;;5160551;28;20173;-50
2022/01/05 11:41:10;;;;;;;8.37;2.30;;;6.50;99.90;;;;;;5158777;28;20448;-50
2022/01/05 11:43:41;;;;;;;7.77;1.77;;;6.60;99.90;;;;;;5157157;28;20241;-49
2022/01/05 11:46:14;;;;;;;14.00;2.77;;;6.70;99.90;;;;;;5158412;28;20472;-50
2022/01/05 11:49:01;;;;;;;12.67;3.30;;;6.50;99.90;;;;;;5157069;28;20479;-49
2022/01/05 11:51:48;;;;;;;8.13;2.63;;;6.60;99.90;;;;;;5142240;28;20432;-49
2022/01/05 11:54:32;;;;;;;10.60;2.50;;;6.60;99.90;;;;;;5159231;28;20477;-51
2022/01/05 11:57:08;;;;;;;13.80;2.30;;;6.60;99.90;;;;;;5160342;28;20904;-49
2022/01/05 11:59:43;;;;;;;10.10;2.50;;;6.60;99.30;;;;;;5155152;28;20613;-49
2022/01/05 12:02:18;;;;;;;14.17;3.20;;;6.50;99.90;;;;;;5156608;28;20448;-50
2022/01/05 12:04:57;;;;;;;14.70;2.57;;;6.30;99.90;;;;;;5157382;28;20829;-51
2022/01/05 12:07:39;;;;;;;11.83;2.57;;;6.30;99.90;;;;;;5134923;28;20514;-49
2022/01/05 12:10:21;;;;;;;7.00;2.80;;;6.20;99.90;;;;;;5154308;28;20443;-50
2022/01/05 12:12:58;;;;;;;20.57;3.27;;;6.00;99.90;;;;;;5155671;28;20504;-49
2022/01/05 12:15:56;;;;;;;3.97;2.10;;;5.90;99.90;;;;;;5159233;28;20971;-51
2022/01/05 12:18:29;;;;;;;11.10;3.97;;;6.00;99.90;;;;;;5157840;28;20444;-51
2022/01/05 12:21:00;;;;;;;5.30;3.60;;;6.10;99.90;;;;;;5159295;28;20439;-50
2022/01/05 12:23:32;;;;;;;9.37;3.50;;;5.90;99.90;;;;;;5157447;28;20469;-50
2022/01/05 12:26:07;;;;;;;7.20;2.80;;;5.90;99.90;;;;;;5141003;28;20684;-49
2022/01/05 12:28:42;;;;;;;11.20;2.80;;;5.80;99.90;;;;;;5151666;28;20470;-50
2022/01/05 12:31:14;;;;;;;5.33;1.50;;;5.80;99.90;;;;;;5148791;28;20904;-49
2022/01/05 12:33:49;;;;;;;10.60;2.60;;;5.90;99.90;;;;;;5138524;28;20467;-49
2022/01/05 12:36:34;;;;;;;13.53;2.50;;;5.70;99.90;;;;;;5144919;28;20470;-50
2022/01/05 12:39:09;;;;;;;5.27;2.20;;;5.70;99.90;;;;;;5160221;28;20534;-49
2022/01/05 12:41:41;;;;;;;10.73;3.10;;;5.70;99.90;;;;;;5156591;28;20451;-51
2022/01/05 12:44:11;;;;;;;10.50;3.80;;;5.60;99.90;;;;;;5152968;28;20541;-49
2022/01/05 12:46:43;;;;;;;15.10;5.97;;;5.50;99.90;;;;;;5159574;28;20471;-48
2022/01/05 12:49:18;;;;;;;12.57;3.30;;;5.50;99.90;;;;;;5158418;28;20263;-52
2022/01/05 12:52:00;;;;;;;2.13;1.93;;;5.60;99.90;;;;;;5156090;28;20438;-48
2022/01/05 12:54:42;;;;;;;8.70;3.60;;;5.60;99.90;;;;;;5153063;28;20804;-51
2022/01/05 12:57:18;;;;;;;10.60;3.10;;;5.50;99.90;;;;;;5123634;28;20447;-48
2022/01/05 12:59:51;;;;;;;7.60;2.60;;;5.60;99.90;;;;;;5154168;28;20447;-50
2022/01/05 13:02:26;;;;;;;14.00;2.80;;;5.50;99.90;;;;;;5138163;28;20463;-52
2022/01/05 13:05:05;;;;;;;12.37;3.00;;;5.40;99.90;;;;;;5151596;28;20461;-50
2022/01/05 13:07:41;;;;;;;9.10;4.37;;;5.50;99.90;;;;;;5153812;28;20471;-49
2022/01/05 13:10:13;;;;;;;6.03;3.00;;;5.50;99.90;;;;;;5153881;28;20449;-51
2022/01/05 13:12:44;;;;;;;3.37;2.20;;;5.50;99.90;;;;;;5154808;28;20719;-50
2022/01/05 13:15:18;;;;;;;5.60;2.60;;;5.50;99.90;;;;;;5156811;28;21033;-50
2022/01/05 13:17:48;;;;;;;7.80;2.40;;;5.50;99.90;;;;;;5156387;28;20448;-49
2022/01/05 13:20:19;;;;;;;4.80;2.30;;;5.50;99.90;;;;;;5159995;28;20558;-48
2022/01/05 13:22:51;;;;;;;5.00;3.00;;;5.50;99.90;;;;;;5159134;28;20222;-50
2022/01/05 13:25:27;;;;;;;6.57;2.67;;;5.50;99.90;;;;;;5160673;28;20267;-49